createdAt,value
2023-02-04T10:41:49.432Z,57.20
2023-02-04T11:04:30.305Z,55.30
2023-02-04T11:05:35.063Z,55.40
2023-02-04T11:06:38.473Z,56.10
2023-02-04T11:07:40.784Z,56.00
2023-02-04T11:08:44.502Z,56.20
2023-02-04T11:09:48.620Z,56.30
2023-02-04T11:10:53.750Z,56.10
2023-02-04T11:12:00.411Z,55.70
2023-02-04T11:13:10.758Z,55.60
2023-02-04T11:14:25.058Z,55.50
2023-02-04T11:15:49.248Z,55.60
2023-02-04T11:16:54.909Z,55.40
2023-02-04T11:18:04.423Z,55.10
2023-02-04T11:19:14.586Z,55.00
2023-02-04T11:20:32.506Z,55.00
2023-02-04T11:21:45.815Z,54.60
2023-02-04T11:22:49.516Z,54.30
2023-02-04T11:24:05.498Z,53.60
2023-02-04T11:25:34.388Z,54.10
2023-02-04T11:26:40.339Z,52.00
2023-02-04T11:27:43.979Z,52.90
2023-02-04T11:28:52.550Z,52.80
2023-02-04T11:30:07.613Z,52.60
2023-02-04T11:31:25.660Z,52.20
2023-02-04T11:32:35.301Z,51.80
2023-02-04T11:33:41.460Z,52.50
2023-02-04T11:34:51.870Z,52.70
2023-02-04T11:36:06.906Z,50.70
2023-02-04T11:37:36.421Z,50.70
2023-02-04T11:38:40.701Z,51.70
2023-02-04T11:39:45.624Z,52.30
2023-02-04T11:41:01.032Z,51.60
2023-02-04T11:42:05.156Z,51.60
2023-02-04T11:43:21.954Z,51.40
2023-02-04T11:44:27.720Z,50.80
2023-02-04T11:45:35.035Z,51.10
2023-02-04T11:46:40.122Z,51.00
2023-02-04T11:47:44.900Z,51.30
2023-02-04T11:48:54.940Z,50.60
2023-02-04T11:50:02.748Z,50.80
2023-02-04T11:51:16.352Z,50.90
2023-02-04T11:52:18.748Z,51.20
2023-02-04T11:53:29.546Z,51.30
2023-02-04T11:54:31.811Z,52.00
2023-02-04T11:55:45.286Z,51.40
2023-02-04T11:56:54.411Z,52.10
2023-02-04T11:57:59.182Z,51.30
2023-02-04T11:59:01.504Z,51.00
2023-02-04T12:00:05.859Z,50.70
2023-02-04T12:01:18.728Z,50.90
2023-02-04T12:02:23.334Z,51.50
2023-02-04T12:03:30.508Z,51.70
2023-02-04T12:04:32.923Z,52.20
2023-02-04T12:05:44.429Z,51.90
2023-02-04T12:06:58.308Z,51.40
2023-02-04T12:08:12.105Z,51.30
2023-02-04T12:09:26.361Z,51.50
2023-02-04T12:10:35.612Z,51.50
2023-02-04T12:11:37.869Z,51.60
2023-02-04T12:12:44.882Z,51.90
2023-02-04T12:13:49.668Z,50.60
2023-02-04T12:15:00.033Z,51.50
2023-02-04T12:16:07.142Z,51.60
2023-02-04T12:17:16.789Z,51.70
2023-02-04T12:18:20.085Z,50.90
2023-02-04T12:19:22.880Z,51.40
2023-02-04T12:20:26.146Z,51.50
2023-02-04T12:21:28.424Z,51.50
2023-02-04T12:22:33.157Z,51.90
2023-02-04T12:23:36.441Z,52.00
2023-02-04T12:24:38.722Z,51.50
2023-02-04T12:25:41.985Z,51.90
2023-02-04T12:26:44.401Z,51.00
2023-02-04T12:27:47.816Z,50.30
2023-02-04T12:28:51.153Z,50.30
2023-02-04T12:29:53.324Z,50.70
2023-02-04T12:30:56.952Z,50.80
2023-02-04T12:31:59.433Z,51.10
2023-02-04T12:33:02.764Z,50.30
2023-02-04T12:34:05.013Z,50.20
2023-02-04T12:35:08.684Z,50.20
2023-02-04T12:36:11.953Z,49.90
2023-02-04T12:37:15.236Z,51.00
2023-02-04T12:38:20.845Z,50.60
2023-02-04T12:39:23.250Z,50.00
2023-02-04T12:40:26.530Z,50.30
2023-02-04T12:41:28.743Z,50.80
2023-02-04T12:42:31.918Z,50.30
2023-02-04T12:43:35.147Z,50.30
2023-02-04T12:44:37.669Z,50.60
2023-02-04T12:45:45.693Z,50.60
2023-02-04T12:46:48.988Z,50.40
2023-02-04T12:47:52.292Z,50.20
2023-02-04T12:48:55.604Z,50.00
2023-02-04T12:49:58.073Z,50.00
2023-02-04T12:51:01.467Z,50.50
2023-02-04T12:52:04.867Z,50.70
2023-02-04T12:53:08.979Z,50.20
2023-02-04T12:54:12.580Z,50.90
2023-02-04T12:55:15.884Z,51.10
2023-02-04T12:56:20.523Z,50.80
2023-02-04T13:05:13.805Z,51.00
2023-02-04T13:10:06.898Z,51.50
2023-02-04T13:11:27.671Z,51.20
2023-02-04T13:19:49.317Z,51.30
2023-02-04T13:21:13.902Z,50.00
2023-02-04T13:22:19.341Z,50.80
2023-02-04T13:41:56.628Z,51.50
2023-02-04T13:42:59.007Z,51.50
2023-02-04T13:44:02.460Z,51.90
2023-02-04T13:45:07.858Z,51.50
2023-02-04T13:46:11.207Z,51.70
2023-02-04T13:47:13.629Z,52.10
2023-02-04T13:49:57.643Z,50.80
2023-02-04T13:51:00.067Z,51.70
2023-02-04T14:41:20.108Z,51.30
2023-02-04T14:42:23.330Z,51.00
2023-02-04T14:43:26.611Z,51.00
2023-02-04T14:44:29.868Z,50.60
2023-02-04T14:45:32.036Z,50.60
2023-02-04T14:46:35.354Z,51.30
2023-02-04T14:47:38.755Z,51.00
2023-02-04T15:29:23.399Z,53.60
2023-02-04T15:30:26.099Z,53.30
2023-02-04T15:31:33.666Z,53.60
2023-02-04T15:32:47.854Z,53.70
2023-02-04T15:33:54.952Z,54.00
2023-02-04T15:34:57.964Z,54.10
2023-02-04T15:36:01.428Z,54.00
2023-02-04T15:37:03.827Z,53.90
2023-02-04T15:38:07.049Z,53.80
2023-02-04T15:39:09.259Z,54.70
2023-02-04T15:40:13.306Z,54.00
2023-02-04T15:41:16.706Z,53.60
2023-02-04T15:42:18.955Z,54.60
2023-02-04T15:43:22.306Z,54.10
2023-02-04T15:44:26.764Z,54.00
2023-02-04T15:45:30.176Z,53.90
2023-02-04T15:46:34.870Z,53.90
2023-02-04T15:47:38.322Z,54.20
2023-02-04T15:48:40.592Z,54.20
2023-02-04T15:49:43.732Z,54.00
2023-02-04T15:50:47.045Z,54.20
2023-02-04T15:51:49.255Z,54.50
2023-02-04T15:52:52.626Z,54.50
2023-02-04T15:53:54.920Z,54.70
2023-02-04T15:54:58.469Z,54.80
2023-02-04T15:56:01.872Z,54.90
2023-02-04T15:57:04.209Z,54.60
2023-02-04T15:58:07.488Z,54.60
2023-02-04T15:59:09.791Z,54.40
2023-02-04T16:00:15.798Z,54.50
2023-02-04T16:01:20.075Z,54.60
2023-02-04T16:02:23.417Z,54.60
2023-02-04T16:03:26.887Z,54.60
2023-02-04T16:04:29.192Z,54.70
2023-02-04T16:05:32.775Z,54.80
2023-02-04T16:06:35.107Z,54.90
2023-02-04T16:07:38.483Z,54.90
2023-02-04T16:08:42.029Z,54.80
2023-02-04T16:09:45.287Z,54.70
2023-02-04T16:10:48.573Z,55.30
2023-02-04T16:11:51.865Z,54.70
2023-02-04T16:12:56.876Z,54.00
2023-02-04T16:14:00.275Z,54.20
2023-02-04T16:15:03.548Z,54.20
2023-02-04T16:16:10.219Z,54.20
2023-02-04T16:17:12.556Z,53.70
2023-02-04T16:18:15.904Z,53.30
2023-02-04T16:19:18.199Z,53.00
2023-02-04T16:20:21.766Z,52.90
2023-02-04T16:21:24.288Z,52.80
2023-02-04T16:22:27.588Z,53.00
2023-02-04T16:23:30.839Z,53.00
2023-02-04T16:25:47.420Z,53.20
2023-02-04T16:53:51.041Z,54.70
2023-02-04T16:55:07.821Z,54.70
2023-02-04T17:07:59.743Z,54.30
2023-02-04T17:16:47.497Z,54.20
2023-02-04T17:33:04.490Z,54.70
2023-02-04T17:34:26.419Z,54.90
2023-02-04T17:42:41.477Z,54.90
2023-02-04T17:43:55.012Z,54.90
2023-02-04T17:45:10.068Z,54.90
2023-02-04T17:48:35.709Z,54.80
2023-02-04T17:50:53.205Z,54.80
2023-02-04T17:51:58.344Z,54.80
2023-02-04T17:53:25.832Z,54.70
2023-02-04T17:54:54.701Z,54.50
2023-02-04T18:00:17.805Z,54.50
2023-02-04T18:01:23.857Z,54.60
2023-02-04T18:02:29.730Z,54.50
2023-02-04T18:03:33.634Z,54.60
2023-02-04T18:04:36.042Z,54.70
2023-02-04T18:05:47.984Z,55.00
2023-02-04T18:06:54.387Z,55.00
2023-02-04T18:08:02.135Z,55.00
2023-02-04T18:09:14.620Z,55.00
2023-02-04T18:10:24.498Z,54.90
2023-02-04T18:11:34.002Z,54.80
2023-02-04T18:12:36.902Z,54.90
2023-02-04T18:13:40.184Z,54.80
2023-02-04T18:14:44.804Z,54.80
2023-02-04T18:15:51.451Z,54.90
2023-02-04T18:16:59.668Z,54.90
2023-02-04T18:18:25.188Z,55.00
2023-02-04T18:19:30.564Z,55.00
2023-02-04T18:20:33.852Z,55.10
2023-02-04T18:21:42.654Z,55.00
2023-02-04T18:22:48.938Z,55.00
2023-02-04T18:24:07.873Z,54.90
2023-02-04T18:25:16.782Z,54.70
2023-02-04T18:26:25.723Z,54.90
2023-02-04T18:27:32.774Z,54.90
2023-02-04T18:28:47.217Z,54.80
2023-02-04T18:29:53.632Z,54.80
2023-02-04T18:31:19.918Z,54.70
2023-02-04T18:32:26.844Z,54.70
2023-02-04T18:33:36.440Z,54.70
2023-02-04T18:34:42.246Z,54.90
2023-02-04T18:35:48.029Z,54.90
2023-02-04T18:36:55.224Z,54.90
2023-02-04T18:37:57.518Z,54.80
2023-02-04T18:39:14.183Z,54.80
2023-02-04T18:40:34.879Z,54.70
2023-02-04T18:41:41.662Z,54.70
2023-02-04T18:42:47.866Z,54.70
2023-02-04T18:44:00.651Z,54.80
2023-02-04T18:45:23.434Z,55.00
2023-02-04T18:46:29.553Z,55.30
2023-02-04T18:47:34.069Z,55.70
2023-02-04T18:49:09.324Z,55.70
2023-02-04T18:50:24.249Z,55.80
2023-02-04T18:51:31.394Z,55.80
2023-02-04T18:52:38.419Z,55.90
2023-02-04T18:53:49.287Z,56.00
2023-02-04T18:54:55.763Z,56.00
2023-02-04T18:56:03.190Z,56.10
2023-02-04T18:57:32.734Z,56.20
2023-02-04T18:58:37.732Z,56.40
2023-02-04T18:59:44.351Z,56.50
2023-02-04T19:00:51.740Z,56.60
2023-02-04T19:01:54.313Z,56.80
2023-02-04T19:03:00.669Z,56.90
2023-02-04T19:04:15.858Z,56.90
2023-02-04T19:05:27.743Z,57.00
2023-02-04T19:06:34.601Z,57.20
2023-02-04T19:07:36.871Z,57.40
2023-02-04T19:08:45.419Z,57.20
2023-02-04T19:09:48.767Z,57.20
2023-02-04T19:10:54.857Z,57.20
2023-02-04T19:12:00.123Z,57.10
2023-02-04T19:13:18.394Z,56.90
2023-02-04T19:14:31.687Z,57.00
2023-02-04T19:15:42.578Z,57.00
2023-02-04T19:17:24.014Z,57.10
2023-02-04T19:18:29.829Z,57.20
2023-02-04T19:19:40.154Z,57.30
2023-02-04T19:20:42.434Z,57.40
2023-02-04T19:21:45.913Z,57.30
2023-02-04T19:22:50.445Z,57.20
2023-02-04T19:23:59.914Z,57.20
2023-02-04T19:25:28.437Z,57.20
2023-02-04T19:26:37.416Z,57.30
2023-02-04T19:27:44.795Z,57.50
2023-02-04T19:28:49.367Z,57.50
2023-02-04T19:29:54.852Z,57.50
2023-02-04T19:31:00.934Z,57.60
2023-02-04T19:32:25.183Z,57.60
2023-02-04T19:33:33.352Z,57.80
2023-02-04T19:34:39.079Z,57.70
2023-02-04T19:35:48.009Z,57.70
2023-02-04T19:36:51.489Z,57.70
2023-02-04T19:37:56.256Z,57.70
2023-02-04T19:39:01.289Z,57.60
2023-02-04T19:40:25.026Z,57.80
2023-02-04T19:41:34.630Z,57.70
2023-02-04T19:42:41.010Z,57.70
2023-02-04T19:43:46.489Z,57.70
2023-02-04T19:44:52.002Z,57.70
2023-02-04T19:45:55.511Z,57.70
2023-02-04T19:47:22.731Z,57.80
2023-02-04T19:48:35.059Z,57.90
2023-02-04T19:49:38.363Z,57.90
2023-02-04T19:50:42.024Z,57.90
2023-02-04T19:51:53.271Z,58.00
2023-02-04T19:53:01.140Z,58.00
2023-02-04T19:54:19.994Z,58.00
2023-02-04T19:55:33.894Z,58.00
2023-02-04T19:56:40.633Z,57.90
2023-02-04T19:57:44.930Z,57.90
2023-02-04T19:58:48.211Z,57.90
2023-02-04T19:59:56.566Z,57.80
2023-02-04T20:01:02.165Z,57.80
2023-02-04T20:02:28.124Z,57.80
2023-02-04T20:03:42.413Z,57.80
2023-02-04T20:04:54.625Z,57.70
2023-02-04T20:06:01.997Z,57.70
2023-02-04T20:07:19.797Z,57.70
2023-02-04T20:08:44.270Z,57.60
2023-02-04T20:09:47.604Z,57.70
2023-02-04T20:10:51.447Z,57.70
2023-02-04T20:11:58.810Z,57.70
2023-02-04T20:13:14.960Z,57.80
2023-02-04T20:14:42.290Z,58.70
2023-02-04T20:15:45.666Z,58.10
2023-02-04T20:16:52.317Z,58.20
2023-02-04T20:17:56.338Z,58.20
2023-02-04T20:19:00.078Z,58.20
2023-02-04T20:20:22.012Z,58.20
2023-02-04T20:21:25.734Z,58.30
2023-02-04T20:22:45.796Z,58.40
2023-02-04T20:23:49.078Z,58.50
2023-02-04T20:24:54.712Z,58.60
2023-02-04T20:25:58.196Z,58.70
2023-02-04T20:27:01.051Z,59.10
2023-02-04T20:28:21.436Z,59.10
2023-02-04T20:29:25.379Z,59.00
2023-02-04T20:30:30.276Z,58.90
2023-02-04T20:31:41.122Z,59.00
2023-02-04T20:32:55.087Z,59.00
2023-02-04T20:33:59.862Z,59.00
2023-02-04T20:35:42.035Z,59.00
2023-02-04T20:36:46.818Z,59.10
2023-02-04T20:37:53.251Z,59.10
2023-02-04T20:39:18.257Z,59.30
2023-02-04T20:40:30.993Z,59.30
2023-02-04T20:41:37.223Z,59.40
2023-02-04T20:42:48.090Z,59.50
2023-02-04T20:43:52.081Z,59.60
2023-02-04T20:45:03.179Z,59.60
2023-02-04T20:46:08.073Z,59.60
2023-02-04T20:47:18.574Z,59.60
2023-02-04T20:48:32.600Z,59.60
2023-02-04T20:49:41.017Z,59.60
2023-02-04T20:50:47.074Z,59.70
2023-02-04T20:51:49.491Z,59.70
2023-02-04T20:53:08.888Z,59.60
2023-02-04T20:54:18.271Z,59.70
2023-02-04T20:55:27.164Z,59.70
2023-02-04T20:56:35.665Z,59.70
2023-02-04T20:57:38.076Z,59.70
2023-02-04T20:58:44.480Z,59.60
2023-02-04T20:59:49.877Z,59.50
2023-02-04T21:00:55.843Z,59.40
2023-02-04T21:01:59.240Z,59.40
2023-02-04T21:03:21.322Z,59.30
2023-02-04T21:04:30.487Z,59.50
2023-02-04T21:05:33.185Z,60.00
2023-02-04T21:06:38.673Z,59.30
2023-02-04T21:07:40.893Z,59.40
2023-02-04T21:08:48.590Z,59.40
2023-02-04T21:09:51.796Z,59.50
2023-02-04T21:10:55.246Z,59.50
2023-02-04T21:12:00.133Z,59.60
2023-02-04T21:13:02.349Z,59.60
2023-02-04T21:14:05.660Z,59.70
2023-02-04T21:15:11.323Z,59.70
2023-02-04T21:16:14.778Z,59.80
2023-02-04T21:17:17.219Z,60.00
2023-02-04T21:18:21.251Z,60.00
2023-02-04T21:19:26.440Z,60.00
2023-02-04T21:20:33.457Z,60.00
2023-02-04T21:21:36.762Z,60.00
2023-02-04T21:22:39.133Z,60.00
2023-02-04T21:23:42.576Z,60.00
2023-02-04T21:24:47.042Z,60.00
2023-02-04T21:25:49.405Z,59.90
2023-02-04T21:26:52.841Z,60.00
2023-02-04T21:28:06.409Z,60.00
2023-02-04T21:29:11.395Z,59.90
2023-02-04T21:30:17.867Z,59.90
2023-02-04T21:31:21.336Z,59.90
2023-02-04T21:32:25.831Z,60.00
2023-02-04T21:33:29.145Z,60.00
2023-02-04T21:34:31.458Z,60.00
2023-02-04T21:35:34.988Z,60.00
2023-02-04T21:36:38.545Z,60.10
2023-02-04T21:37:40.864Z,60.30
2023-02-04T21:38:44.099Z,60.40
2023-02-04T21:39:49.476Z,60.40
2023-02-04T21:40:52.738Z,60.50
2023-02-04T21:42:10.250Z,60.50
2023-02-04T21:43:13.718Z,60.50
2023-02-04T21:44:16.916Z,60.30
2023-02-04T21:45:23.120Z,60.30
2023-02-04T21:46:26.508Z,60.20
2023-02-04T21:47:28.885Z,60.10
2023-02-04T21:48:32.257Z,60.00
2023-02-04T21:49:34.528Z,60.10
2023-02-04T21:50:39.385Z,60.10
2023-02-04T21:51:41.704Z,60.10
2023-02-04T21:52:45.223Z,60.20
2023-02-04T21:53:47.541Z,60.20
2023-02-04T21:54:50.819Z,60.20
2023-02-04T21:55:54.170Z,60.30
2023-02-04T21:56:57.059Z,60.30
2023-02-04T21:58:00.361Z,60.20
2023-02-04T21:59:04.601Z,60.20
2023-02-04T22:00:09.284Z,60.20
2023-02-04T22:01:13.889Z,60.20
2023-02-04T22:02:16.230Z,60.20
2023-02-04T22:03:19.936Z,60.20
2023-02-04T22:04:23.951Z,60.20
2023-02-04T22:05:27.238Z,60.20
2023-02-04T22:06:30.551Z,60.20
2023-02-04T22:07:32.882Z,60.20
2023-02-04T22:08:36.136Z,60.10
2023-02-04T22:09:38.494Z,60.10
2023-02-04T22:10:41.752Z,60.00
2023-02-04T22:11:48.233Z,60.00
2023-02-04T22:12:51.477Z,60.00
2023-02-04T22:13:53.712Z,60.00
2023-02-04T22:14:58.284Z,60.00
2023-02-04T22:16:03.794Z,60.00
2023-02-04T22:17:07.492Z,59.90
2023-02-04T22:18:11.259Z,59.90
2023-02-04T22:19:13.717Z,59.90
2023-02-04T22:20:19.272Z,59.80
2023-02-04T22:21:21.525Z,59.90
2023-02-04T22:22:24.828Z,59.80
2023-02-04T22:23:27.058Z,59.80
2023-02-04T22:24:30.281Z,59.80
2023-02-04T22:25:33.805Z,59.90
2023-02-04T22:26:36.211Z,59.80
2023-02-04T22:27:39.669Z,59.80
2023-02-04T22:28:42.028Z,59.80
2023-02-04T22:29:45.368Z,59.80
2023-02-04T22:30:48.743Z,59.80
2023-02-04T22:31:51.637Z,59.80
2023-02-04T22:32:56.870Z,59.80
2023-02-04T22:33:59.114Z,59.80
2023-02-04T22:35:02.693Z,59.70
2023-02-04T22:36:05.303Z,59.70
2023-02-04T22:37:08.628Z,59.60
2023-02-04T22:38:11.762Z,59.60
2023-02-04T22:39:14.453Z,59.60
2023-02-04T22:40:17.883Z,59.60
2023-02-04T22:41:20.206Z,59.60
2023-02-04T22:42:23.443Z,59.60
2023-02-04T22:43:25.771Z,59.70
2023-02-04T22:44:29.232Z,59.80
2023-02-04T22:45:33.232Z,59.90
2023-02-04T22:46:35.683Z,60.00
2023-02-04T22:47:39.049Z,60.10
2023-02-04T22:48:42.745Z,60.20
2023-02-04T22:49:45.975Z,60.30
2023-02-04T22:50:49.347Z,60.30
2023-02-04T22:51:51.652Z,60.40
2023-02-04T22:52:54.959Z,60.30
2023-02-04T22:53:57.224Z,60.30
2023-02-04T22:55:00.496Z,60.30
2023-02-04T22:56:02.844Z,60.30
2023-02-04T22:57:06.333Z,60.30
2023-02-04T22:58:09.822Z,60.30
2023-02-04T22:59:13.119Z,60.30
2023-02-04T23:00:17.108Z,60.30
2023-02-04T23:01:20.637Z,60.40
2023-02-04T23:02:23.988Z,60.50
2023-02-04T23:03:26.355Z,60.80
2023-02-04T23:04:30.958Z,60.60
2023-02-04T23:05:34.627Z,60.60
2023-02-04T23:06:37.669Z,60.60
2023-02-04T23:07:40.955Z,60.70
2023-02-04T23:08:48.607Z,60.60
2023-02-04T23:09:51.970Z,60.70
2023-02-04T23:10:54.355Z,60.80
2023-02-04T23:11:58.100Z,60.80
2023-02-04T23:13:00.331Z,60.80
2023-02-04T23:14:06.690Z,60.80
2023-02-04T23:15:12.910Z,60.80
2023-02-04T23:16:15.468Z,60.80
2023-02-04T23:17:19.850Z,60.80
2023-02-04T23:18:22.064Z,60.80
2023-02-04T23:19:25.274Z,60.80
2023-02-04T23:20:31.195Z,60.80
2023-02-04T23:21:34.826Z,60.70
2023-02-04T23:22:42.504Z,60.70
2023-02-04T23:23:48.669Z,60.70
2023-02-04T23:24:51.871Z,60.80
2023-02-04T23:25:54.207Z,60.70
2023-02-04T23:26:59.922Z,60.80
2023-02-04T23:28:02.551Z,60.80
2023-02-04T23:29:05.802Z,60.80
2023-02-04T23:30:10.585Z,60.80
2023-02-04T23:31:14.006Z,60.80
2023-02-04T23:32:16.788Z,60.80
2023-02-04T23:33:20.029Z,60.80
2023-02-04T23:34:22.348Z,60.90
2023-02-04T23:35:25.821Z,60.90
2023-02-04T23:36:30.515Z,60.90
2023-02-04T23:37:33.340Z,60.90
